createdAt,value
2018-03-14T00:01:15.333Z,10.15
2018-03-14T00:03:41.316Z,9.55
2018-03-14T00:06:07.311Z,10.20
2018-03-14T00:08:33.301Z,9.82
2018-03-14T00:10:59.395Z,9.63
2018-03-14T00:13:25.354Z,9.38
2018-03-14T00:15:51.345Z,10.68
2018-03-14T00:18:17.311Z,10.85
2018-03-14T00:20:43.299Z,9.20
2018-03-14T00:23:09.266Z,9.70
2018-03-14T00:25:35.375Z,10.02
2018-03-14T00:28:01.331Z,10.05
2018-03-14T00:30:27.457Z,10.95
2018-03-14T00:32:53.436Z,9.25
2018-03-14T00:35:19.438Z,8.43
2018-03-14T00:37:46.135Z,9.70
2018-03-14T00:40:12.255Z,9.63
2018-03-14T00:42:38.255Z,9.75
2018-03-14T00:45:04.364Z,10.60
2018-03-14T00:47:30.348Z,10.68
2018-03-14T00:49:56.334Z,9.25
2018-03-14T00:52:22.319Z,9.98
2018-03-14T00:54:49.030Z,9.77
2018-03-14T00:57:14.976Z,10.45
2018-03-14T00:59:41.839Z,10.80
2018-03-14T01:02:07.804Z,10.18
2018-03-14T01:04:33.780Z,10.75
2018-03-14T01:06:59.739Z,9.40
2018-03-14T01:09:25.740Z,10.27
2018-03-14T01:11:52.449Z,8.52
2018-03-14T01:14:19.308Z,9.75
2018-03-14T01:16:45.310Z,8.73
2018-03-14T01:19:11.259Z,8.82
2018-03-14T01:21:37.368Z,8.00
2018-03-14T01:24:04.064Z,9.63
2018-03-14T01:26:30.065Z,9.68
2018-03-14T01:28:56.028Z,9.25
2018-03-14T01:31:22.136Z,10.13
2018-03-14T01:33:48.137Z,8.25
2018-03-14T01:36:14.134Z,8.20
2018-03-14T01:38:40.898Z,8.55
2018-03-14T01:41:07.765Z,7.40
2018-03-14T01:43:33.799Z,6.95
2018-03-14T01:45:59.749Z,6.20
2018-03-14T01:48:26.611Z,5.95
2018-03-14T01:50:52.588Z,6.68
2018-03-14T01:53:18.668Z,7.37
2018-03-14T01:55:44.628Z,5.25
2018-03-14T01:58:10.581Z,7.30
2018-03-14T02:00:37.324Z,7.00
2018-03-14T02:03:04.024Z,5.60
2018-03-14T02:05:30.023Z,5.72
2018-03-14T02:07:55.999Z,6.35
2018-03-14T02:10:22.888Z,6.10
2018-03-14T02:12:48.879Z,5.78
2018-03-14T02:15:15.609Z,6.15
2018-03-14T02:17:42.320Z,6.20
2018-03-14T02:20:08.275Z,6.35
2018-03-14T02:22:35.148Z,7.20
2018-03-14T02:25:01.110Z,6.95
2018-03-14T02:27:27.202Z,6.75
2018-03-14T02:29:53.152Z,6.30
2018-03-14T02:32:19.157Z,6.53
2018-03-14T02:34:45.105Z,6.90
2018-03-14T02:37:11.201Z,6.83
2018-03-14T02:39:37.196Z,6.68
2018-03-14T02:42:03.336Z,7.10
2018-03-14T02:44:29.452Z,7.30
2018-03-14T02:46:55.407Z,7.05
2018-03-14T02:49:21.366Z,9.17
2018-03-14T02:51:47.311Z,7.22
2018-03-14T02:54:13.304Z,8.40
2018-03-14T02:56:39.261Z,8.15
2018-03-14T02:59:05.368Z,8.68
2018-03-14T03:01:31.332Z,9.80
2018-03-14T03:03:57.281Z,9.13
2018-03-14T03:06:23.271Z,9.20
2018-03-14T03:08:49.199Z,10.48
2018-03-14T03:11:15.168Z,10.10
2018-03-14T03:13:41.101Z,9.32
2018-03-14T03:16:07.044Z,9.13
2018-03-14T03:18:33.157Z,9.60
2018-03-14T03:20:59.844Z,11.23
2018-03-14T03:23:25.812Z,12.30
2018-03-14T03:25:51.748Z,10.70
2018-03-14T03:28:18.481Z,9.87
2018-03-14T03:30:45.201Z,10.63
2018-03-14T03:33:11.160Z,11.75
2018-03-14T03:35:37.103Z,11.52
2018-03-14T03:38:03.092Z,10.97
2018-03-14T03:40:29.919Z,11.95
2018-03-14T03:42:55.852Z,12.73
2018-03-14T03:45:21.954Z,11.37
2018-03-14T03:47:47.897Z,11.20
2018-03-14T03:50:14.737Z,12.50
2018-03-14T03:52:41.436Z,10.75
2018-03-14T03:55:07.415Z,11.63
2018-03-14T03:57:33.368Z,11.43
2018-03-14T03:59:59.323Z,10.35
2018-03-14T04:02:25.396Z,10.30
2018-03-14T04:04:51.347Z,9.60
2018-03-14T04:07:17.435Z,9.53
2018-03-14T04:09:43.376Z,9.15
2018-03-14T04:12:10.118Z,8.50
2018-03-14T04:14:36.145Z,7.85
2018-03-14T04:17:02.884Z,9.35
2018-03-14T04:19:28.835Z,8.70
2018-03-14T04:21:54.789Z,8.83
2018-03-14T04:24:21.620Z,8.73
2018-03-14T04:26:47.620Z,9.38
2018-03-14T04:29:13.616Z,11.38
2018-03-14T04:31:39.575Z,10.43
2018-03-14T04:34:05.553Z,10.70
2018-03-14T04:36:31.480Z,11.70
2018-03-14T04:38:57.416Z,12.33
2018-03-14T04:41:23.503Z,11.70
2018-03-14T04:43:49.598Z,11.15
2018-03-14T04:46:16.326Z,11.15
2018-03-14T04:48:42.319Z,10.88
2018-03-14T04:51:08.412Z,11.30
2018-03-14T04:53:34.347Z,10.20
2018-03-14T04:56:00.309Z,11.00
2018-03-14T04:58:26.289Z,10.48
2018-03-14T05:00:52.254Z,11.18
2018-03-14T05:03:18.232Z,10.05
2018-03-14T05:05:44.222Z,11.38
2018-03-14T05:08:10.921Z,10.63
2018-03-14T05:10:36.903Z,9.95
2018-03-14T05:13:02.994Z,10.80
2018-03-14T05:15:28.951Z,9.88
2018-03-14T05:17:54.927Z,10.05
2018-03-14T05:20:20.867Z,9.40
2018-03-14T05:22:46.856Z,9.37
2018-03-14T05:25:12.796Z,10.90
2018-03-14T05:27:38.797Z,8.57
2018-03-14T05:30:04.753Z,9.82
2018-03-14T05:32:30.713Z,9.48
2018-03-14T05:34:56.684Z,9.05
2018-03-14T05:37:22.624Z,9.00
2018-03-14T05:39:49.527Z,9.53
2018-03-14T05:42:15.469Z,8.77
2018-03-14T05:44:41.463Z,8.47
2018-03-14T05:47:07.539Z,8.52
2018-03-14T05:49:34.232Z,8.60
2018-03-14T05:52:00.220Z,8.65
2018-03-14T05:54:26.183Z,9.65
2018-03-14T05:56:52.159Z,9.23
2018-03-14T05:59:18.880Z,7.55
2018-03-14T06:01:45.730Z,8.20
2018-03-14T06:04:12.441Z,8.65
2018-03-14T06:06:38.399Z,9.68
2018-03-14T06:09:05.132Z,10.00
2018-03-14T06:11:31.840Z,8.52
2018-03-14T06:13:57.825Z,8.77
2018-03-14T06:16:23.788Z,10.45
2018-03-14T06:18:49.888Z,9.45
2018-03-14T06:21:15.860Z,9.68
2018-03-14T06:23:42.607Z,10.13
2018-03-14T06:26:09.292Z,9.60
2018-03-14T06:28:35.234Z,10.00
2018-03-14T06:31:01.217Z,10.03
2018-03-14T06:33:27.151Z,9.57
2018-03-14T06:35:53.099Z,10.20
2018-03-14T06:38:19.184Z,9.80
2018-03-14T06:40:45.292Z,10.05
2018-03-14T06:43:12.008Z,9.93
2018-03-14T06:45:38.715Z,9.18
2018-03-14T06:48:04.689Z,9.10
2018-03-14T06:50:31.362Z,10.80
2018-03-14T06:52:57.456Z,10.73
2018-03-14T06:55:24.155Z,8.40
2018-03-14T06:57:50.124Z,8.50
2018-03-14T07:00:16.096Z,8.52
2018-03-14T07:02:42.049Z,9.75
2018-03-14T07:05:08.776Z,8.63
2018-03-14T07:07:34.721Z,10.43
2018-03-14T07:10:00.748Z,9.47
2018-03-14T07:12:26.704Z,9.13
2018-03-14T07:14:52.689Z,8.97
2018-03-14T07:17:19.429Z,9.60
2018-03-14T07:19:46.165Z,8.90
2018-03-14T07:22:12.128Z,8.55
2018-03-14T07:24:38.088Z,9.65
2018-03-14T07:27:04.170Z,7.57
2018-03-14T07:29:30.124Z,9.07
2018-03-14T07:31:56.142Z,8.83
2018-03-14T07:34:22.104Z,9.05
2018-03-14T07:36:48.800Z,8.93
2018-03-14T07:39:14.784Z,8.10
2018-03-14T07:41:40.886Z,7.87
2018-03-14T07:44:07.749Z,7.85
2018-03-14T07:46:33.705Z,8.90
2018-03-14T07:48:59.719Z,8.48
2018-03-14T07:51:25.699Z,6.45
2018-03-14T07:53:52.395Z,7.30
2018-03-14T07:56:18.388Z,7.50
2018-03-14T07:58:44.348Z,7.68
2018-03-14T08:01:10.507Z,8.02
2018-03-14T08:03:36.421Z,6.65
2018-03-14T08:06:03.174Z,7.73
2018-03-14T08:08:29.859Z,7.22
2018-03-14T08:10:55.816Z,6.70
2018-03-14T08:13:22.565Z,7.05
2018-03-14T08:15:49.441Z,7.57
2018-03-14T08:18:15.388Z,6.80
2018-03-14T08:20:41.348Z,6.70
2018-03-14T08:23:07.366Z,6.20
2018-03-14T08:25:33.311Z,6.50
2018-03-14T08:27:59.255Z,7.30
2018-03-14T08:30:25.253Z,6.30
2018-03-14T08:32:51.331Z,7.72
2018-03-14T08:35:17.291Z,7.10
2018-03-14T08:37:44.032Z,6.87
2018-03-14T08:40:10.792Z,7.35
2018-03-14T08:42:36.784Z,6.65
2018-03-14T08:45:02.894Z,6.15
2018-03-14T08:47:28.996Z,5.70
2018-03-14T08:49:55.123Z,7.50
2018-03-14T08:52:21.080Z,6.68
2018-03-14T08:54:47.102Z,6.90
2018-03-14T08:57:13.368Z,6.97
2018-03-14T08:59:39.368Z,6.65
2018-03-14T09:02:05.352Z,6.15
2018-03-14T09:04:31.408Z,6.60
2018-03-14T09:06:58.707Z,5.62
2018-03-14T09:09:24.755Z,4.90
2018-03-14T09:11:51.572Z,6.28
2018-03-14T09:14:17.536Z,5.95
2018-03-14T09:16:45.041Z,6.00
2018-03-14T09:19:11.952Z,5.72
2018-03-14T09:21:38.698Z,5.82
2018-03-14T09:24:04.703Z,6.10
2018-03-14T09:26:32.605Z,6.28
2018-03-14T09:29:00.642Z,5.65
2018-03-14T09:31:27.937Z,5.62
2018-03-14T09:33:54.188Z,5.18
2018-03-14T09:36:20.730Z,5.95
2018-03-14T09:38:48.697Z,5.82
2018-03-14T09:41:17.562Z,5.62
2018-03-14T09:43:44.712Z,4.95
2018-03-14T09:46:12.235Z,4.18
2018-03-14T09:48:38.979Z,4.62
2018-03-14T09:51:07.660Z,5.10
2018-03-14T09:53:36.339Z,4.87
2018-03-14T09:56:03.674Z,5.37
2018-03-14T09:58:30.586Z,4.43
2018-03-14T10:00:58.082Z,5.50
2018-03-14T10:03:26.034Z,5.25
2018-03-14T10:05:52.871Z,6.43
2018-03-14T10:08:19.216Z,5.78
2018-03-14T10:10:46.101Z,5.10
2018-03-14T10:13:14.155Z,5.55
2018-03-14T10:15:41.427Z,6.65
2018-03-14T10:18:08.139Z,6.70
2018-03-14T10:20:34.740Z,6.55
2018-03-14T10:23:00.887Z,6.95
2018-03-14T10:25:28.208Z,6.00
2018-03-14T10:27:56.474Z,6.25
2018-03-14T10:30:23.949Z,5.87
2018-03-14T10:32:51.870Z,6.18
2018-03-14T10:35:19.317Z,6.07
2018-03-14T10:37:46.488Z,6.43
2018-03-14T10:40:14.066Z,5.05
2018-03-14T10:42:41.096Z,6.10
2018-03-14T10:45:10.014Z,6.20
2018-03-14T10:47:36.588Z,5.70
2018-03-14T10:50:03.365Z,5.40
2018-03-14T10:52:33.924Z,5.30
2018-03-14T10:55:02.656Z,5.70
2018-03-14T10:57:32.214Z,6.72
2018-03-14T11:00:00.484Z,6.35
2018-03-14T11:02:29.675Z,6.37
2018-03-14T11:04:57.980Z,6.30
2018-03-14T11:07:26.442Z,6.18
2018-03-14T11:09:57.233Z,6.15
2018-03-14T11:12:24.341Z,6.25
2018-03-14T11:14:53.630Z,6.03
2018-03-14T11:17:21.482Z,6.93
2018-03-14T11:19:50.599Z,7.05
2018-03-14T11:22:20.034Z,6.70
2018-03-14T11:24:47.882Z,7.70
2018-03-14T11:27:16.239Z,5.82
2018-03-14T11:29:45.328Z,7.10
2018-03-14T11:32:13.013Z,6.75
2018-03-14T11:34:39.864Z,6.00
2018-03-14T11:37:07.427Z,5.90
2018-03-14T11:39:35.571Z,6.35
2018-03-14T11:42:03.439Z,5.97
2018-03-14T11:44:32.011Z,7.20
2018-03-14T11:47:00.289Z,6.20
2018-03-14T11:49:27.687Z,7.20
2018-03-14T11:51:53.774Z,6.93
2018-03-14T11:54:22.351Z,6.97
2018-03-14T11:56:49.806Z,7.40
2018-03-14T11:59:17.318Z,7.40
2018-03-14T12:01:44.943Z,7.00
2018-03-14T12:04:13.994Z,7.15
2018-03-14T12:06:41.888Z,7.50
2018-03-14T12:09:10.302Z,6.30
2018-03-14T12:11:38.108Z,7.35
2018-03-14T12:14:05.581Z,7.47
2018-03-14T12:16:34.499Z,6.72
2018-03-14T12:19:01.593Z,5.78
2018-03-14T12:21:30.570Z,7.15
2018-03-14T12:23:57.241Z,6.05
2018-03-14T12:26:35.743Z,6.75
2018-03-14T12:29:04.712Z,6.03
2018-03-14T12:31:33.344Z,6.90
2018-03-14T12:34:01.348Z,5.60
2018-03-14T12:36:30.207Z,5.87
2018-03-14T12:38:58.705Z,6.20
2018-03-14T12:41:26.081Z,6.50
2018-03-14T12:43:54.153Z,6.25
2018-03-14T12:46:21.844Z,6.70
2018-03-14T12:48:50.474Z,6.12
2018-03-14T12:51:17.309Z,6.25
2018-03-14T12:53:44.696Z,6.45
2018-03-14T12:56:12.306Z,6.72
2018-03-14T12:58:39.539Z,5.87
2018-03-14T13:01:07.293Z,6.15
2018-03-14T13:03:34.909Z,5.85
2018-03-14T13:06:03.154Z,5.47
2018-03-14T13:08:29.813Z,6.30
2018-03-14T13:10:57.764Z,5.80
2018-03-14T13:13:24.162Z,5.95
2018-03-14T13:15:50.354Z,6.25
2018-03-14T13:18:16.456Z,6.32
2018-03-14T13:20:43.792Z,6.00
2018-03-14T13:23:11.538Z,5.90
2018-03-14T13:25:38.808Z,4.97
2018-03-14T13:28:06.865Z,5.40
2018-03-14T13:30:33.743Z,5.20
2018-03-14T13:33:01.982Z,5.45
2018-03-14T13:35:30.481Z,6.10
2018-03-14T13:37:59.496Z,5.90
2018-03-14T13:40:26.293Z,6.05
2018-03-14T13:42:53.236Z,5.43
2018-03-14T13:45:20.442Z,6.25
2018-03-14T13:47:46.710Z,6.35
2018-03-14T13:50:13.094Z,5.18
2018-03-14T13:52:39.149Z,6.00
2018-03-14T13:55:05.177Z,5.30
2018-03-14T13:57:31.714Z,6.57
2018-03-14T13:59:57.751Z,5.32
2018-03-14T14:02:23.879Z,5.53
2018-03-14T14:04:49.899Z,5.90
2018-03-14T14:07:15.968Z,4.75
2018-03-14T14:09:41.946Z,5.80
2018-03-14T14:12:09.034Z,7.30
2018-03-14T14:14:35.926Z,7.30
2018-03-14T14:17:04.173Z,5.97
2018-03-14T14:19:31.280Z,6.05
2018-03-14T14:21:57.458Z,6.75
2018-03-14T14:24:23.770Z,6.55
2018-03-14T14:26:50.597Z,6.87
2018-03-14T14:29:16.739Z,6.10
2018-03-14T14:31:42.712Z,6.55
2018-03-14T14:34:08.733Z,6.30
2018-03-14T14:36:35.314Z,6.32
2018-03-14T14:39:02.562Z,5.90
2018-03-14T14:41:29.343Z,6.07
2018-03-14T14:43:57.116Z,6.20
2018-03-14T14:46:23.253Z,5.78
2018-03-14T14:48:49.295Z,5.75
2018-03-14T14:51:15.329Z,5.75
2018-03-14T14:53:41.292Z,5.35
2018-03-14T14:56:07.280Z,4.80
2018-03-14T14:58:34.174Z,5.28
2018-03-14T15:01:00.551Z,6.03
2018-03-14T15:03:27.303Z,5.55
2018-03-14T15:05:53.324Z,5.87
2018-03-14T15:08:20.068Z,6.20
2018-03-14T15:10:48.702Z,5.70
2018-03-14T15:13:14.778Z,6.62
2018-03-14T15:15:40.712Z,6.22
2018-03-14T15:18:06.688Z,6.47
2018-03-14T15:20:32.669Z,5.87
2018-03-14T15:22:58.639Z,6.30
2018-03-14T15:25:24.620Z,5.83
2018-03-14T15:27:50.651Z,5.97
2018-03-14T15:30:17.594Z,5.95
2018-03-14T15:32:43.649Z,6.32
2018-03-14T15:35:09.669Z,5.75
2018-03-14T15:37:35.622Z,5.82
2018-03-14T15:40:01.599Z,6.07
2018-03-14T15:42:27.612Z,6.37
2018-03-14T15:44:53.607Z,5.85
2018-03-14T15:47:19.697Z,6.87
2018-03-14T15:49:45.677Z,6.20
2018-03-14T15:52:11.717Z,5.60
2018-03-14T15:54:37.726Z,6.12
2018-03-14T15:57:04.916Z,5.90
2018-03-14T15:59:30.877Z,6.95
2018-03-14T16:01:56.866Z,5.70
2018-03-14T16:04:23.705Z,6.47
2018-03-14T16:06:49.703Z,6.20
2018-03-14T16:09:15.705Z,5.93
2018-03-14T16:11:41.692Z,6.20
2018-03-14T16:14:09.169Z,6.07
2018-03-14T16:16:35.205Z,6.03
2018-03-14T16:19:01.205Z,6.40
2018-03-14T16:21:27.378Z,5.87
2018-03-14T16:23:53.699Z,6.43
2018-03-14T16:26:20.251Z,6.75
2018-03-14T16:28:46.367Z,7.90
2018-03-14T16:31:12.409Z,6.65
2018-03-14T16:33:38.396Z,6.15
2018-03-14T16:36:04.353Z,5.78
2018-03-14T16:38:30.477Z,6.30
2018-03-14T16:40:56.466Z,6.90
2018-03-14T16:43:23.577Z,6.20
2018-03-14T16:45:50.307Z,6.00
2018-03-14T16:48:17.038Z,6.65
2018-03-14T16:50:43.772Z,6.62
2018-03-14T16:53:09.761Z,6.35
2018-03-14T16:55:35.885Z,6.55
2018-03-14T16:58:01.837Z,7.35
2018-03-14T17:00:27.816Z,7.10
2018-03-14T17:02:53.830Z,7.53
2018-03-14T17:05:19.808Z,5.95
2018-03-14T17:07:45.796Z,7.45
2018-03-14T17:10:11.873Z,6.30
2018-03-14T17:12:37.862Z,6.65
2018-03-14T17:15:03.848Z,6.43
2018-03-14T17:17:29.890Z,6.93
2018-03-14T17:19:55.836Z,6.07
2018-03-14T17:22:21.824Z,5.77
2018-03-14T17:24:47.852Z,7.30
2018-03-14T17:27:13.943Z,6.60
2018-03-14T17:29:40.097Z,7.05
2018-03-14T17:32:06.080Z,6.68
2018-03-14T17:34:32.054Z,6.85
2018-03-14T17:36:58.046Z,6.82
2018-03-14T17:39:24.751Z,6.68
2018-03-14T17:41:50.703Z,6.78
2018-03-14T17:44:16.824Z,7.20
2018-03-14T17:46:43.570Z,7.55
2018-03-14T17:49:09.573Z,7.12
2018-03-14T17:51:35.570Z,6.90
2018-03-14T17:54:01.574Z,7.22
2018-03-14T17:56:27.597Z,7.20
2018-03-14T17:58:53.570Z,7.65
2018-03-14T18:01:20.422Z,7.00
2018-03-14T18:03:47.169Z,8.10
2018-03-14T18:06:13.164Z,6.40
2018-03-14T18:08:39.162Z,7.78
2018-03-14T18:11:05.162Z,7.37
2018-03-14T18:13:31.153Z,7.35
2018-03-14T18:15:57.863Z,7.57
2018-03-14T18:18:23.853Z,7.53
2018-03-14T18:20:49.872Z,8.10
2018-03-14T18:23:15.820Z,7.30
2018-03-14T18:25:41.849Z,7.47
2018-03-14T18:28:07.789Z,8.00
2018-03-14T18:30:33.919Z,7.30
2018-03-14T18:32:59.896Z,8.02
2018-03-14T18:35:26.029Z,6.95
2018-03-14T18:37:51.982Z,7.68
2018-03-14T18:40:17.933Z,7.07
2018-03-14T18:42:43.904Z,7.70
2018-03-14T18:45:09.879Z,7.80
2018-03-14T18:47:35.865Z,8.13
2018-03-14T18:50:01.886Z,8.55
2018-03-14T18:52:27.857Z,7.43
2018-03-14T18:54:53.845Z,8.57
2018-03-14T18:57:19.849Z,8.00
2018-03-14T18:59:45.809Z,7.57
2018-03-14T19:02:12.566Z,7.73
2018-03-14T19:04:39.308Z,8.63
2018-03-14T19:07:06.017Z,7.97
2018-03-14T19:09:32.881Z,8.52
2018-03-14T19:11:58.856Z,7.32
2018-03-14T19:14:25.611Z,8.20
2018-03-14T19:16:51.580Z,8.75
2018-03-14T19:19:17.578Z,8.75
2018-03-14T19:21:43.560Z,7.97
2018-03-14T19:24:09.522Z,8.82
2018-03-14T19:26:35.610Z,7.75
2018-03-14T19:29:01.713Z,7.80
2018-03-14T19:31:27.725Z,8.18
2018-03-14T19:33:54.429Z,7.87
2018-03-14T19:36:21.169Z,9.90
2018-03-14T19:38:47.881Z,8.88
2018-03-14T19:41:13.934Z,7.90
2018-03-14T19:43:40.626Z,8.25
2018-03-14T19:46:06.616Z,8.43
2018-03-14T19:48:32.607Z,10.07
2018-03-14T19:50:58.567Z,9.10
2018-03-14T19:53:24.562Z,8.63
2018-03-14T19:55:51.273Z,9.15
2018-03-14T19:58:17.332Z,9.15
2018-03-14T20:00:44.067Z,9.70
2018-03-14T20:03:10.809Z,9.38
2018-03-14T20:05:37.521Z,8.65
2018-03-14T20:08:03.524Z,9.18
2018-03-14T20:10:29.541Z,8.20
2018-03-14T20:12:56.721Z,9.00
2018-03-14T20:15:22.675Z,9.32
2018-03-14T20:17:48.638Z,9.63
2018-03-14T20:20:14.673Z,9.20
2018-03-14T20:22:40.631Z,9.30
2018-03-14T20:25:07.377Z,10.40
2018-03-14T20:27:34.088Z,9.48
2018-03-14T20:30:01.128Z,10.27
2018-03-14T20:32:27.098Z,10.55
2018-03-14T20:34:53.103Z,10.07
2018-03-14T20:37:19.083Z,9.23
2018-03-14T20:39:45.028Z,10.65
2018-03-14T20:42:11.024Z,9.07
2018-03-14T20:44:36.984Z,8.50
2018-03-14T20:47:03.757Z,9.57
2018-03-14T20:49:29.738Z,10.13
2018-03-14T20:51:55.714Z,8.85
2018-03-14T20:54:21.696Z,9.55
2018-03-14T20:56:48.451Z,10.40
2018-03-14T20:59:14.417Z,9.73
2018-03-14T21:01:40.393Z,9.32
2018-03-14T21:04:06.582Z,9.05
2018-03-14T21:06:32.537Z,9.98
2018-03-14T21:08:58.536Z,9.65
2018-03-14T21:11:24.486Z,10.52
2018-03-14T21:13:51.188Z,9.83
2018-03-14T21:16:17.162Z,10.00
2018-03-14T21:18:43.166Z,9.52
2018-03-14T21:21:10.086Z,9.85
2018-03-14T21:23:36.036Z,11.25
2018-03-14T21:26:02.013Z,9.73
2018-03-14T21:28:27.961Z,10.15
2018-03-14T21:30:54.077Z,10.03
2018-03-14T21:33:20.084Z,9.60
2018-03-14T21:35:46.043Z,9.80
2018-03-14T21:38:12.905Z,9.32
2018-03-14T21:40:38.865Z,9.90
2018-03-14T21:43:04.876Z,9.70
2018-03-14T21:45:30.885Z,10.27
2018-03-14T21:47:56.857Z,9.98
2018-03-14T21:50:22.836Z,9.40
2018-03-14T21:52:48.807Z,10.55
2018-03-14T21:55:15.644Z,9.77
2018-03-14T21:57:41.627Z,9.85
2018-03-14T22:00:07.655Z,11.25
2018-03-14T22:02:33.617Z,11.80
2018-03-14T22:04:59.625Z,9.32
2018-03-14T22:07:25.560Z,10.43
2018-03-14T22:09:51.513Z,10.70
2018-03-14T22:12:17.628Z,10.55
2018-03-14T22:14:43.636Z,11.60
2018-03-14T22:17:10.322Z,10.85
2018-03-14T22:19:36.300Z,11.10
2018-03-14T22:22:02.976Z,11.68
2018-03-14T22:24:29.069Z,11.50
2018-03-14T22:26:55.765Z,11.77
2018-03-14T22:29:21.849Z,11.00
2018-03-14T22:31:47.939Z,12.68
2018-03-14T22:34:13.914Z,12.13
2018-03-14T22:36:39.890Z,11.38
2018-03-14T22:39:06.600Z,11.35
2018-03-14T22:41:32.565Z,11.48
2018-03-14T22:43:59.276Z,11.43
2018-03-14T22:46:25.216Z,12.45
2018-03-14T22:48:52.057Z,12.03
2018-03-14T22:51:18.020Z,11.65
2018-03-14T22:53:44.002Z,12.85
2018-03-14T22:56:10.719Z,11.55
2018-03-14T22:58:36.831Z,11.75
2018-03-14T23:01:02.773Z,11.57
2018-03-14T23:03:28.753Z,11.60
2018-03-14T23:05:54.737Z,11.40
2018-03-14T23:08:21.457Z,12.25
2018-03-14T23:10:47.392Z,11.55
2018-03-14T23:13:13.407Z,11.73
2018-03-14T23:15:39.385Z,10.82
2018-03-14T23:18:05.362Z,11.30
2018-03-14T23:20:32.057Z,12.52
2018-03-14T23:22:58.167Z,11.07
2018-03-14T23:25:24.120Z,12.05
2018-03-14T23:27:50.137Z,12.85
2018-03-14T23:30:36.634Z,12.30
2018-03-14T23:33:02.653Z,12.32
2018-03-14T23:35:28.633Z,10.82
2018-03-14T23:37:55.316Z,11.80
2018-03-14T23:40:21.464Z,11.25
2018-03-14T23:42:47.393Z,11.90
2018-03-14T23:45:13.361Z,13.60
2018-03-14T23:47:39.314Z,10.98
2018-03-14T23:50:05.460Z,11.23
2018-03-14T23:52:31.397Z,11.45
2018-03-14T23:54:57.437Z,12.40
2018-03-14T23:57:23.424Z,12.32
2018-03-14T23:59:49.387Z,12.32
